Data for 07/23/2008

Time Sea-Level Adjusted Pressure Absolute Pressure Temperature Relative Humidity Dew Point   
(mb) (inHg) (mb) (inHg) (C) (F) (%) (C) (F)
00:05 1019 30.09 848 25.04 13 55.5 93 11.9 53.3
00:10 1019 30.09 848 25.04 13 55.3 94 12 53.5
00:15 1019 30.09 848 25.04 12.7 54.8 95 11.8 53.3
00:20 1019 30.09 848 25.04 12.5 54.5 95 11.7 53
00:25 1019 30.09 848 25.04 12.4 54.4 94 11.6 52.8
00:30 1019 30.09 848 25.04 12.4 54.3 94 11.4 52.6
00:35 1019 30.09 848 25.04 12.3 54.2 94 11.4 52.5
00:40 1019 30.09 848 25.04 12.1 53.7 95 11.3 52.4
00:45 1019 30.09 848 25.04 12.2 54 93 11.1 51.9
00:50 1019 30.09 848 25.04 12.5 54.5 92 11.2 52.2
00:55 1019 30.09 848 25.04 12.4 54.2 93 11.3 52.3
01:00 1019 30.09 848 25.04 12.4 54.4 91 11.1 51.9
01:05 1019 30.09 848 25.04 12.5 54.5 91 11.1 51.9
01:10 1019 30.09 848 25.04 12.4 54.4 91 11.1 51.9
01:15 1018 30.06 848 25.04 12.3 54.1 93 11.2 52.1
01:20 1019 30.09 848 25.04 12.2 53.9 93 11.1 52
01:25 1018 30.06 848 25.04 12.1 53.8 94 11.2 52.1
01:30 1018 30.06 848 25.04 12.1 53.7 93 11 51.9
01:35 1018 30.06 848 25.04 12 53.5 94 11 51.7
01:40 1018 30.06 848 25.04 12 53.6 93 10.9 51.7
01:45 1019 30.09 848 25.04 12 53.6 93 10.8 51.5
01:50 1019 30.09 848 25.04 11.9 53.4 93 10.8 51.4
01:55 1018 30.06 848 25.04 11.9 53.4 92 10.7 51.2
02:00 1018 30.06 848 25.04 11.8 53.2 92 10.5 50.9
02:05 1019 30.09 848 25.04 12 53.7 91 10.5 51
02:10 1019 30.09 848 25.04 12.4 54.2 90 10.8 51.4
02:15 1019 30.09 848 25.04 12.5 54.5 89 10.7 51.3
02:20 1019 30.09 848 25.04 12.6 54.7 87 10.4 50.8
02:25 1019 30.09 848 25.04 12.6 54.7 87 10.5 50.8
02:30 1019 30.09 848 25.04 12.6 54.6 86 10.4 50.7
02:35 1019 30.09 848 25.04 12.7 54.9 87 10.6 51.1
02:40 1019 30.09 848 25.04 12.3 54.1 88 10.5 50.8
02:45 1019 30.09 848 25.04 12 53.6 90 10.4 50.7
02:50 1019 30.09 848 25.04 11.5 52.6 92 10.2 50.4
02:55 1019 30.09 848 25.04 11.5 52.7 89 9.8 49.7
03:00 1019 30.09 848 25.04 11.8 53.3 88 9.9 49.8
03:05 1019 30.09 848 25.04 11.7 53.1 87 9.7 49.4
03:10 1019 30.09 848 25.04 11.8 53.2 87 9.7 49.5
03:15 1019 30.09 848 25.04 11.8 53.3 87 9.7 49.5
03:20 1019 30.09 848 25.04 12.2 53.9 85 9.7 49.5
03:25 1019 30.09 848 25.04 12.7 54.8 82 9.8 49.6
03:30 1019 30.09 848 25.04 12.6 54.6 83 9.8 49.6
03:35 1019 30.09 848 25.04 12.4 54.4 82 9.4 48.9
03:40 1019 30.09 848 25.04 12.3 54.1 88 10.3 50.5
03:45 1019 30.09 848 25.04 11.8 53.2 88 9.8 49.7
03:50 1019 30.09 848 25.04 11.6 52.8 89 9.9 49.8
03:55 1019 30.09 848 25.04 11.6 52.9 89 9.8 49.7
04:00 1019 30.09 848 25.04 11.9 53.4 86 9.6 49.3
04:05 1019 30.09 848 25.04 11.9 53.4 89 10.1 50.2
04:10 1019 30.09 849 25.07 11.5 52.7 89 9.8 49.6
04:15 1019 30.09 849 25.07 11.4 52.5 90 9.7 49.5
04:20 1019 30.09 849 25.07 11.2 52.2 89 9.5 49.1
04:25 1019 30.09 849 25.07 11.4 52.5 89 9.7 49.4
04:30 1019 30.09 849 25.07 11.1 52 89 9.3 48.8
04:35 1019 30.09 849 25.07 11.7 53 85 9.3 48.8
04:40 1020 30.12 849 25.07 11.6 52.8 88 9.7 49.5
04:45 1020 30.12 849 25.07 10.7 51.2 92 9.4 48.9
04:50 1020 30.12 849 25.07 10.7 51.3 89 9 48.3
04:55 1020 30.12 849 25.07 10.7 51.3 89 8.9 48
05:00 1020 30.12 849 25.07 10.6 51.2 89 8.9 48
05:05 1020 30.12 849 25.07 10.4 50.7 91 8.9 48.1
05:10 1020 30.12 849 25.07 10.2 50.3 90 8.7 47.6
05:15 1020 30.12 849 25.07 10.1 50.1 91 8.7 47.7
05:20 1020 30.12 849 25.07 9.8 49.6 91 8.4 47.1
05:25 1020 30.12 849 25.07 10.2 50.4 87 8.2 46.8
05:30 1020 30.12 849 25.07 10.5 50.9 87 8.4 47.1
05:35 1020 30.12 849 25.07 10.4 50.7 87 8.4 47.2
05:40 1020 30.12 849 25.07 10.1 50.2 89 8.3 47
05:45 1020 30.12 849 25.07 10 50 89 8.3 46.9
05:50 1020 30.12 849 25.07 10 50 88 8.2 46.7
05:55 1020 30.12 849 25.07 10.3 50.5 87 8.2 46.7
06:00 1020 30.12 849 25.07 10.5 50.8 86 8.2 46.8
06:05 1020 30.12 849 25.07 10.6 51 85 8.2 46.7
06:10 1020 30.12 849 25.07 10.6 51.1 85 8.2 46.8
06:15 1020 30.12 849 25.07 10.5 50.9 87 8.4 47.1
06:20 1020 30.12 849 25.07 10.4 50.8 86 8.3 46.9
06:25 1020 30.12 850 25.1 10.4 50.7 87 8.4 47.1
06:30 1020 30.12 850 25.1 10.5 50.8 86 8.1 46.7
06:35 1020 30.12 850 25.1 11.1 51.9 82 8.2 46.8
06:40 1020 30.12 850 25.1 11.5 52.6 81 8.4 47.1
06:45 1020 30.12 850 25.1 11.7 53 81 8.5 47.2
06:50 1020 30.12 850 25.1 11.5 52.8 82 8.6 47.6
06:55 1020 30.12 850 25.1 11.3 52.4 82 8.4 47.1
07:00 1021 30.15 850 25.1 11.7 53.1 82 8.7 47.7
07:05 1021 30.15 850 25.1 11.7 53 82 8.8 47.8
07:10 1021 30.15 850 25.1 11.8 53.3 81 8.7 47.7
07:15 1021 30.15 850 25.1 11.9 53.4 82 8.8 47.9
07:20 1021 30.15 850 25.1 11.9 53.3 79 8.4 47.1
07:25 1021 30.15 850 25.1 12.7 54.8 78 8.9 48
07:30 1021 30.15 850 25.1 12.9 55.1 80 9.5 49.1
07:35 1021 30.15 850 25.1 12.9 55.2 79 9.4 49
07:40 1021 30.15 850 25.1 13.1 55.5 80 9.7 49.5
07:45 1021 30.15 850 25.1 13.4 56.2 79 9.9 49.9
07:50 1021 30.15 850 25.1 13.8 56.9 76 9.8 49.6
07:55 1021 30.15 850 25.1 14.1 57.4 75 9.8 49.6
08:00 1021 30.15 850 25.1 13.8 56.9 80 10.4 50.8
08:05 1021 30.15 850 25.1 14.5 58.2 78 10.8 51.4
08:10 1021 30.15 850 25.1 14.8 58.7 77 10.9 51.6
08:15 1021 30.15 850 25.1 14.8 58.6 78 11 51.7
08:20 1021 30.15 850 25.1 15 59.1 76 10.8 51.4
08:25 1021 30.15 850 25.1 15.4 59.8 74 10.9 51.7
08:30 1021 30.15 850 25.1 16 60.8 72 11.1 51.9
08:35 1021 30.15 850 25.1 16.6 61.9 69 11 51.8
08:40 1021 30.15 850 25.1 17.1 62.7 69 11.3 52.4
08:45 1021 30.15 850 25.1 17.8 64 65 11.3 52.3
08:50 1021 30.15 850 25.1 18.7 65.6 64 11.8 53.2
08:55 1021 30.15 850 25.1 19.1 66.3 60 11.2 52.2
09:00 1021 30.15 850 25.1 18.6 65.4 62 11.2 52.1
09:05 1021 30.15 850 25.1 19.3 66.7 56 10.5 50.9
09:10 1021 30.15 850 25.1 19.7 67.5 56 10.9 51.7
09:15 1021 30.15 850 25.1 20 67.9 53 10.3 50.5
09:20 1021 30.15 850 25.1 20 68.1 52 10 50
09:25 1021 30.15 850 25.1 19.6 67.2 58 11.1 52
09:30 1021 30.15 850 25.1 19 66.2 55 10 50
09:35 1021 30.15 850 25.1 19.8 67.6 54 10.4 50.8
09:40 1021 30.15 850 25.1 20 67.9 54 10.5 50.9
09:45 1021 30.15 850 25.1 20.4 68.6 52 10.4 50.7
09:50 1021 30.15 850 25.1 20.3 68.5 51 9.9 49.8
09:55 1021 30.15 850 25.1 20.8 69.4 50 10 49.9
10:00 1021 30.15 850 25.1 20.5 69 51 10.1 50.2
10:05 1021 30.15 850 25.1 20.5 68.9 48 9.3 48.8
10:10 1021 30.15 850 25.1 20.8 69.4 49 9.8 49.6
10:15 1021 30.15 850 25.1 20.8 69.5 49 9.9 49.9
10:20 1021 30.15 850 25.1 19.5 67.1 49 8.6 47.4
10:25 1021 30.15 850 25.1 20.2 68.4 47 8.6 47.6
10:30 1021 30.15 850 25.1 20.3 68.5 51 9.9 49.8
10:35 1021 30.15 850 25.1 20.1 68.1 48 8.7 47.7
10:40 1021 30.15 850 25.1 20.8 69.5 46 9 48.1
10:45 1021 30.15 850 25.1 21.2 70.2 46 9.3 48.7
10:50 1021 30.15 850 25.1 20.8 69.4 48 9.6 49.3
10:55 1021 30.15 850 25.1 20 68 49 9.2 48.5
11:00 1021 30.15 850 25.1 20.7 69.3 48 9.4 49
11:05 1021 30.15 850 25.1 21.1 69.9 44 8.6 47.4
11:10 1021 30.15 850 25.1 21.5 70.6 46 9.4 48.9
11:15 1021 30.15 850 25.1 21.6 70.8 42 8.3 46.9
11:20 1021 30.15 850 25.1 20.4 68.7 47 8.9 48
11:25 1021 30.15 850 25.1 20.2 68.3 50 9.5 49.1
11:30 1021 30.15 850 25.1 21 69.8 46 9.1 48.4
11:35 1021 30.15 850 25.1 21.1 69.9 48 9.7 49.4
11:40 1021 30.15 850 25.1 21.3 70.3 47 9.7 49.5
11:45 1021 30.15 850 25.1 21 69.8 44 8.6 47.4
11:50 1021 30.15 850 25.1 21.5 70.8 44 9 48.2
11:55 1021 30.15 850 25.1 21.7 71 42 8.3 46.9
12:00 1021 30.15 850 25.1 22 71.5 42 8.7 47.7
12:05 1021 30.15 850 25.1 21.4 70.6 44 8.8 47.8
12:10 1021 30.15 850 25.1 22.4 72.3 41 8.8 47.9
12:15 1021 30.15 850 25.1 22.9 73.2 40 8.7 47.6
12:20 1020 30.12 850 25.1 23.1 73.5 40 9 48.2
12:25 1020 30.12 850 25.1 22.6 72.7 43 9.5 49
12:30 1020 30.12 850 25.1 21.9 71.4 42 8.5 47.2
12:35 1020 30.12 850 25.1 22.2 71.9 41 8.5 47.2
12:40 1020 30.12 850 25.1 22.6 72.6 40 8.6 47.6
12:45 1020 30.12 850 25.1 22.4 72.3 44 9.6 49.3
12:50 1020 30.12 849 25.07 22.9 73.3 40 9 48.1
12:55 1020 30.12 849 25.07 23.9 75 40 9.8 49.7
13:00 1020 30.12 849 25.07 22.3 72.2 42 9.1 48.5
13:05 1020 30.12 849 25.07 23.2 73.8 39 8.8 47.8
13:10 1020 30.12 849 25.07 23.5 74.3 43 10.3 50.5
13:15 1020 30.12 849 25.07 23.1 73.5 38 8 46.4
13:20 1020 30.12 849 25.07 24.1 75.3 38 9.2 48.6
13:25 1020 30.12 849 25.07 24.3 75.7 36 8.5 47.2
13:30 1020 30.12 849 25.07 24.1 75.3 36 8.3 47
13:35 1020 30.12 849 25.07 24.2 75.5 32 6.7 44.1
13:40 1020 30.12 849 25.07 24.4 75.9 33 7.4 45.3
13:45 1020 30.12 849 25.07 24.9 76.9 31 7 44.6
13:50 1020 30.12 849 25.07 25.4 77.7 27 5.5 41.9
13:55 1020 30.12 849 25.07 25.6 78 32 7.8 46.1
14:00 1020 30.12 849 25.07 25.5 77.9 29 6.5 43.7
14:05 1020 30.12 849 25.07 25.5 77.8 29 6.5 43.7
14:10 1020 30.12 849 25.07 25.3 77.6 26 4.8 40.7
14:15 1020 30.12 849 25.07 24.7 76.4 28 5.1 41.1
14:20 1019 30.09 849 25.07 24.5 76.2 24 3.1 37.5
14:25 1019 30.09 849 25.07 23.8 74.8 29 5.1 41.2
14:30 1019 30.09 849 25.07 23.8 74.9 26 3.2 37.8
14:35 1019 30.09 849 25.07 24 75.1 25 3 37.3
14:40 1019 30.09 848 25.04 24 75.2 25 3 37.4
14:45 1019 30.09 848 25.04 23.9 75 26 3.3 37.9
14:50 1019 30.09 848 25.04 24.3 75.8 25 3.1 37.5
14:55 1019 30.09 848 25.04 24.8 76.6 24 3 37.3
15:00 1019 30.09 848 25.04 24.8 76.7 22 2.2 35.9
15:05 1019 30.09 848 25.04 25.4 77.8 22 2.7 36.9
15:10 1019 30.09 848 25.04 26.3 79.3 22 3.1 37.5
15:15 1019 30.09 848 25.04 26.3 79.3 21 2.6 36.6
15:20 1019 30.09 848 25.04 26.5 79.7 21 2.6 36.6
15:25 1019 30.09 848 25.04 26.4 79.5 22 3 37.3
15:30 1019 30.09 848 25.04 26.5 79.7 22 3.5 38.3
15:35 1019 30.09 848 25.04 26.3 79.4 23 4 39.2
15:40 1019 30.09 848 25.04 26.9 80.3 22 3.6 38.5
15:45 1019 30.09 848 25.04 26.8 80.3 22 3.6 38.4
15:50 1019 30.09 848 25.04 26.2 79.1 21 2.6 36.7
15:55 1019 30.09 848 25.04 26.4 79.5 23 3.6 38.5
16:00 1019 30.09 848 25.04 26.6 79.9 23 4 39.3
16:05 1019 30.09 848 25.04 26.7 80 22 3.8 38.8
16:10 1018 30.06 848 25.04 27.3 81.2 22 4.2 39.6
16:15 1018 30.06 848 25.04 27.4 81.2 23 4.6 40.3
16:20 1018 30.06 848 25.04 26.6 79.8 25 5.4 41.8
16:25 1018 30.06 848 25.04 25.6 78 24 3.9 39.1
16:30 1018 30.06 847 25.01 26 78.9 25 4.6 40.2
16:35 1018 30.06 847 25.01 25.8 78.5 25 4.8 40.7
16:40 1018 30.06 847 25.01 25.7 78.2 25 4.6 40.3
16:45 1018 30.06 847 25.01 26.2 79.1 24 4 39.3
16:50 1018 30.06 847 25.01 26.7 80 25 5.1 41.2
16:55 1018 30.06 847 25.01 25.8 78.5 25 4.4 39.9
17:00 1018 30.06 847 25.01 26.8 80.3 24 4.8 40.7
17:05 1018 30.06 847 25.01 26.6 79.8 25 5.2 41.4
17:10 1018 30.06 847 25.01 26.2 79.1 26 5.2 41.3
17:15 1018 30.06 847 25.01 26.5 79.6 25 5 41
17:20 1018 30.06 847 25.01 26.1 78.9 26 5.4 41.8
17:25 1018 30.06 847 25.01 26.4 79.4 25 5 41
17:30 1018 30.06 847 25.01 26.2 79.1 25 4.8 40.6
17:35 1018 30.06 847 25.01 27 80.5 24 4.8 40.6
17:40 1018 30.06 847 25.01 28.1 82.6 23 5.2 41.4
17:45 1018 30.06 847 25.01 27.9 82.1 24 5.5 41.9
17:50 1018 30.06 847 25.01 28.1 82.7 23 5.7 42.2
17:55 1018 30.06 847 25.01 27.9 82.2 23 5.1 41.2
18:00 1018 30.06 847 25.01 27.6 81.8 24 5.8 42.4
18:05 1018 30.06 847 25.01 27.4 81.4 24 5.1 41.2
18:10 1018 30.06 847 25.01 27.3 81.1 24 5.2 41.4
18:15 1017 30.03 847 25.01 27.2 80.9 25 6 42.8
18:20 1017 30.03 847 25.01 27 80.6 27 6.5 43.7
18:25 1017 30.03 847 25.01 26.5 79.6 27 6.1 43
18:30 1017 30.03 847 25.01 26.5 79.6 26 5.5 41.9
18:35 1017 30.03 847 25.01 26.3 79.4 25 5.2 41.4
18:40 1017 30.03 847 25.01 26.2 79.2 24 4.6 40.3
18:45 1017 30.03 846 24.98 26.2 79.1 24 4.5 40.1
18:50 1017 30.03 846 24.98 26.4 79.5 24 4.5 40.1
18:55 1017 30.03 846 24.98 26.9 80.4 23 4 39.3
19:00 1017 30.03 846 24.98 26.9 80.4 24 4.9 40.7
19:05 1017 30.03 846 24.98 26.7 80 24 4.8 40.6
19:10 1017 30.03 846 24.98 26.5 79.7 27 6.2 43.1
19:15 1017 30.03 846 24.98 26.5 79.6 26 5.6 42.1
19:20 1017 30.03 846 24.98 26.4 79.5 25 5 40.9
19:25 1017 30.03 846 24.98 26.3 79.4 24 4.5 40.2
19:30 1017 30.03 846 24.98 26.1 79 25 5 41
19:35 1017 30.03 846 24.98 25.8 78.5 24 4.3 39.7
19:40 1017 30.03 846 24.98 25.7 78.2 27 5.6 42
19:45 1017 30.03 846 24.98 25.3 77.5 29 6.3 43.3
19:50 1017 30.03 846 24.98 25 76.9 28 5.7 42.3
19:55 1017 30.03 846 24.98 24.8 76.7 29 5.7 42.3
20:00 1017 30.03 846 24.98 24.5 76.2 31 6.3 43.4
20:05 1017 30.03 846 24.98 24.2 75.6 30 5.9 42.6
20:10 1017 30.03 846 24.98 24.2 75.5 33 7 44.6
20:15 1017 30.03 847 25.01 24 75.2 42 10.4 50.7
20:20 1017 30.03 847 25.01 23.1 73.5 46 10.9 51.7
20:25 1017 30.03 846 24.98 22.8 73 49 11.6 52.8
20:30 1017 30.03 846 24.98 22.3 72.1 52 12.1 53.8
20:35 1017 30.03 846 24.98 21.6 70.9 55 12.2 54
20:40 1017 30.03 846 24.98 21.2 70.2 56 12.2 54
20:45 1017 30.03 846 24.98 20.9 69.7 57 12.3 54.1
20:50 1017 30.03 846 24.98 21.1 70 47 9.4 48.9
20:55 1017 30.03 846 24.98 21.3 70.3 51 10.8 51.5
21:00 1017 30.03 846 24.98 20.7 69.3 55 11.5 52.8
21:05 1017 30.03 846 24.98 20.1 68.2 58 11.8 53.2
21:10 1017 30.03 846 24.98 19.4 67 60 11.6 52.8
21:15 1017 30.03 846 24.98 19.2 66.6 59 11.2 52.1
21:20 1017 30.03 846 24.98 19.5 67.1 54 9.9 49.9
21:25 1017 30.03 847 25.01 19.8 67.7 54 10.5 50.9
21:30 1018 30.06 847 25.01 19.6 67.2 55 10.4 50.8
21:35 1018 30.06 847 25.01 19.5 67.1 57 11 51.7
21:40 1018 30.06 847 25.01 19.3 66.8 59 11.2 52.1
21:45 1017 30.03 847 25.01 18.7 65.7 65 12 53.6
21:50 1017 30.03 846 24.98 18 64.3 71 12.7 54.9
21:55 1017 30.03 846 24.98 18 64.4 52 8.1 46.6
22:00 1017 30.03 846 24.98 19.1 66.3 64 12.1 53.8
22:05 1017 30.03 847 25.01 17.5 63.5 70 12.1 53.7
22:10 1017 30.03 847 25.01 17.4 63.2 64 10.5 50.9
22:15 1018 30.06 847 25.01 17.8 64 69 12 53.7
22:20 1018 30.06 847 25.01 17.1 62.8 73 12.4 54.2
22:25 1018 30.06 847 25.01 17 62.5 71 11.8 53.2
22:30 1019 30.09 848 25.04 17.1 62.7 71 11.8 53.3
22:35 1019 30.09 848 25.04 17.3 63.1 68 11.3 52.3
22:40 1019 30.09 848 25.04 17.7 63.8 59 9.7 49.4
22:45 1019 30.09 848 25.04 18.6 65.4 62 11.3 52.3
22:50 1018 30.06 848 25.04 18.3 65 52 8.4 47.1
22:55 1018 30.06 847 25.01 19.2 66.6 51 9 48.1
23:00 1018 30.06 847 25.01 19.4 66.9 45 7.4 45.4
23:05 1018 30.06 847 25.01 19.7 67.5 51 9.3 48.7
23:10 1018 30.06 847 25.01 19.1 66.4 55 10 50.1
23:15 1018 30.06 847 25.01 18.7 65.6 58 10.3 50.6
23:20 1018 30.06 847 25.01 18.3 64.9 57 9.8 49.7
23:25 1018 30.06 847 25.01 18.3 65 60 10.5 51
23:30 1018 30.06 847 25.01 17.9 64.1 59 9.7 49.5
23:35 1018 30.06 847 25.01 18.2 64.7 55 9.1 48.3
23:40 1017 30.03 847 25.01 18.4 65.1 54 8.9 48.1
23:45 1017 30.03 847 25.01 18.3 65 53 8.7 47.7
23:50 1017 30.03 847 25.01 18.2 64.7 52 8.3 46.9
23:55 1017 30.03 846 24.98 18.2 64.7 52 8.3 46.9
24:00 1017 30.03 846 24.98 17.9 64.3 50 7.5 45.4